createdAt,value
2022-10-05T00:00:51.814Z,3.85
2022-10-05T00:03:18.423Z,3.80
2022-10-05T00:05:45.616Z,3.90
2022-10-05T00:08:17.691Z,3.98
2022-10-05T00:10:45.292Z,4.08
2022-10-05T00:13:16.784Z,4.08
2022-10-05T00:15:43.978Z,3.97
2022-10-05T00:18:13.321Z,3.96
2022-10-05T00:20:41.190Z,3.88
2022-10-05T00:23:13.176Z,3.83
2022-10-05T00:25:39.853Z,3.78
2022-10-05T00:28:12.714Z,3.59
2022-10-05T00:30:39.418Z,3.44
2022-10-05T00:33:05.966Z,3.53
2022-10-05T00:35:34.645Z,3.49
2022-10-05T00:38:01.342Z,3.44
2022-10-05T00:40:37.610Z,3.35
2022-10-05T00:43:04.266Z,3.23
2022-10-05T00:45:36.391Z,3.18
2022-10-05T00:48:26.178Z,3.38
2022-10-05T00:50:55.496Z,3.23
2022-10-05T00:53:25.143Z,3.32
2022-10-05T00:55:58.739Z,3.60
2022-10-05T00:58:44.016Z,3.59
2022-10-05T01:01:10.742Z,3.69
2022-10-05T01:03:50.899Z,3.60
2022-10-05T01:06:36.084Z,3.71
2022-10-05T01:09:02.663Z,3.59
2022-10-05T01:11:32.513Z,3.52
2022-10-05T01:14:33.024Z,3.52
2022-10-05T01:17:05.449Z,3.55
2022-10-05T01:19:41.893Z,3.47
2022-10-05T01:22:27.049Z,3.34
2022-10-05T01:25:02.482Z,3.28
2022-10-05T01:27:32.146Z,3.29
2022-10-05T01:30:12.871Z,3.34
2022-10-05T01:32:39.586Z,3.20
2022-10-05T01:35:09.279Z,3.16
2022-10-05T01:37:38.990Z,3.10
2022-10-05T01:40:14.614Z,3.22
2022-10-05T01:42:44.161Z,3.15
2022-10-05T01:45:20.241Z,3.12
2022-10-05T01:47:51.290Z,3.00
2022-10-05T01:50:38.125Z,2.97
2022-10-05T01:53:07.734Z,2.90
2022-10-05T01:55:53.382Z,2.96
2022-10-05T01:58:27.921Z,2.83
2022-10-05T02:01:07.214Z,2.77
2022-10-05T02:03:42.113Z,2.95
2022-10-05T02:06:12.408Z,2.95
2022-10-05T02:08:46.242Z,2.83
2022-10-05T02:11:14.971Z,2.66
2022-10-05T02:13:50.824Z,2.72
2022-10-05T02:16:31.973Z,2.87
2022-10-05T02:19:02.476Z,2.87
2022-10-05T02:21:31.292Z,2.77
2022-10-05T02:23:59.960Z,2.78
2022-10-05T02:26:27.826Z,2.70
2022-10-05T02:28:54.713Z,2.59
2022-10-05T02:31:24.297Z,2.71
2022-10-05T02:33:51.007Z,2.83
2022-10-05T02:36:40.444Z,2.77
2022-10-05T02:39:13.102Z,2.64
2022-10-05T02:41:42.499Z,2.67
2022-10-05T02:44:39.329Z,2.64
2022-10-05T02:47:18.258Z,2.47
2022-10-05T02:49:52.299Z,2.48
2022-10-05T02:52:25.189Z,2.30
2022-10-05T02:55:01.009Z,2.32
2022-10-05T02:57:42.950Z,2.35
2022-10-05T03:00:21.307Z,2.30
2022-10-05T03:03:06.337Z,2.39
2022-10-05T03:05:40.846Z,2.24
2022-10-05T03:08:13.194Z,2.21
2022-10-05T03:10:52.968Z,2.30
2022-10-05T03:13:19.525Z,2.28
2022-10-05T03:16:06.828Z,2.38
2022-10-05T03:18:35.402Z,2.31
2022-10-05T03:21:05.100Z,2.23
2022-10-05T03:23:44.245Z,2.10
2022-10-05T03:26:36.864Z,2.05
2022-10-05T03:29:08.693Z,2.16
2022-10-05T03:31:56.776Z,2.19
2022-10-05T03:34:29.433Z,2.18
2022-10-05T03:37:10.527Z,2.14
2022-10-05T03:39:44.772Z,2.07
2022-10-05T03:42:12.652Z,2.05
2022-10-05T03:44:53.566Z,2.22
2022-10-05T03:47:29.286Z,2.23
2022-10-05T03:50:14.740Z,2.32
2022-10-05T03:52:54.770Z,2.28
2022-10-05T03:55:26.851Z,2.05
2022-10-05T03:57:58.146Z,1.92
2022-10-05T04:00:26.932Z,1.85
2022-10-05T04:03:05.474Z,1.91
2022-10-05T04:05:36.432Z,1.99
2022-10-05T04:08:21.556Z,2.00
2022-10-05T04:10:50.633Z,2.06
2022-10-05T04:13:31.565Z,2.09
2022-10-05T04:16:01.479Z,2.24
2022-10-05T04:18:31.150Z,2.02
2022-10-05T04:21:01.615Z,2.01
2022-10-05T04:23:49.055Z,2.06
2022-10-05T04:26:18.700Z,1.94
2022-10-05T04:28:48.651Z,1.83
2022-10-05T04:31:19.826Z,2.01
2022-10-05T04:33:53.486Z,1.99
2022-10-05T04:36:28.131Z,1.95
2022-10-05T04:42:27.199Z,1.92
2022-10-05T04:44:57.100Z,2.15
2022-10-05T04:47:44.742Z,2.51
2022-10-05T04:50:30.422Z,2.74
2022-10-05T04:53:08.307Z,2.89
2022-10-05T04:55:52.210Z,2.85
2022-10-05T04:58:27.977Z,2.80
2022-10-05T05:01:10.564Z,2.75
2022-10-05T05:03:37.335Z,2.43
2022-10-05T05:06:18.022Z,2.59
2022-10-05T05:09:07.185Z,2.76
2022-10-05T05:11:38.621Z,2.85
2022-10-05T05:14:34.721Z,2.92
2022-10-05T05:17:13.404Z,3.20
2022-10-05T05:19:40.599Z,3.18
2022-10-05T05:22:42.300Z,3.33
2022-10-05T05:25:27.926Z,3.37
2022-10-05T05:27:58.332Z,3.47
2022-10-05T05:30:26.767Z,3.60
2022-10-05T05:32:53.408Z,3.42
2022-10-05T05:35:19.971Z,3.77
2022-10-05T05:37:46.667Z,3.75
2022-10-05T05:40:13.361Z,3.94
2022-10-05T05:42:51.254Z,4.01
2022-10-05T05:45:23.722Z,4.26
2022-10-05T05:47:54.870Z,4.25
2022-10-05T05:50:49.203Z,4.42
2022-10-05T05:53:18.864Z,4.66
2022-10-05T05:56:01.309Z,4.90
2022-10-05T05:58:33.019Z,4.97
2022-10-05T06:01:05.259Z,5.09
2022-10-05T06:03:44.083Z,5.10
2022-10-05T06:06:16.021Z,5.19
2022-10-05T06:08:44.888Z,5.33
2022-10-05T06:11:41.083Z,5.59
2022-10-05T06:14:14.885Z,5.84
2022-10-05T06:16:57.848Z,6.10
2022-10-05T06:19:27.737Z,6.36
2022-10-05T06:22:06.967Z,6.44
2022-10-05T06:25:05.824Z,6.64
2022-10-05T06:27:58.414Z,6.66
2022-10-05T06:30:27.708Z,6.86
2022-10-05T06:33:29.947Z,7.01
2022-10-05T06:36:22.834Z,7.25
2022-10-05T06:39:15.913Z,7.45
2022-10-05T06:41:48.933Z,7.66
2022-10-05T06:44:15.532Z,7.82
2022-10-05T06:47:11.632Z,7.96
2022-10-05T06:50:04.437Z,7.96
2022-10-05T06:53:08.674Z,8.10
2022-10-05T06:55:49.755Z,8.12
2022-10-05T06:58:16.426Z,8.22
2022-10-05T07:00:43.202Z,8.37
2022-10-05T07:03:20.311Z,8.59
2022-10-05T07:05:47.331Z,8.73
2022-10-05T07:08:17.402Z,8.80
2022-10-05T07:11:02.491Z,9.04
2022-10-05T07:13:48.683Z,9.17
2022-10-05T07:16:36.912Z,9.37
2022-10-05T07:19:29.332Z,9.41
2022-10-05T07:22:14.954Z,9.54
2022-10-05T07:25:02.580Z,9.62
2022-10-05T07:27:34.472Z,9.74
2022-10-05T07:30:04.723Z,9.84
2022-10-05T07:32:37.280Z,9.98
2022-10-05T07:35:38.188Z,9.74
2022-10-05T07:38:12.989Z,9.81
2022-10-05T07:40:47.819Z,9.90
2022-10-05T07:43:57.647Z,9.90
2022-10-05T07:46:38.878Z,9.84
2022-10-05T07:49:18.328Z,9.77
2022-10-05T07:51:55.121Z,9.82
2022-10-05T07:54:41.184Z,9.90
2022-10-05T07:57:28.229Z,10.24
2022-10-05T07:59:58.141Z,10.47
2022-10-05T08:02:34.622Z,10.47
2022-10-05T08:05:18.889Z,10.61
2022-10-05T08:07:45.884Z,10.75
2022-10-05T08:10:21.862Z,10.76
2022-10-05T08:12:48.532Z,10.86
2022-10-05T08:15:16.511Z,10.98
2022-10-05T08:17:59.147Z,11.05
2022-10-05T08:20:32.608Z,11.09
2022-10-05T08:23:10.579Z,11.47
2022-10-05T08:25:50.910Z,11.56
2022-10-05T08:28:23.270Z,11.74
2022-10-05T08:31:01.073Z,11.82
2022-10-05T08:33:32.293Z,11.60
2022-10-05T08:36:07.715Z,11.94
2022-10-05T08:38:34.725Z,12.21
2022-10-05T08:41:07.393Z,11.96
2022-10-05T08:43:36.961Z,12.03
2022-10-05T08:46:22.176Z,12.11
2022-10-05T08:49:04.549Z,12.28
2022-10-05T08:51:50.154Z,12.54
2022-10-05T08:54:36.961Z,12.71
2022-10-05T08:57:03.499Z,12.99
2022-10-05T08:59:48.782Z,13.23
2022-10-05T09:02:34.075Z,13.58
2022-10-05T09:05:00.712Z,13.53
2022-10-05T09:07:37.054Z,13.50
2022-10-05T09:10:26.607Z,13.60
2022-10-05T09:12:56.498Z,13.62
2022-10-05T09:15:26.462Z,13.37
2022-10-05T09:18:12.138Z,13.86
2022-10-05T09:20:38.868Z,14.22
2022-10-05T09:23:24.145Z,14.69
2022-10-05T09:25:58.765Z,14.39
2022-10-05T09:28:25.447Z,14.41
2022-10-05T09:30:56.876Z,14.74
2022-10-05T09:34:14.326Z,14.42
2022-10-05T09:36:59.721Z,14.48
2022-10-05T09:39:32.303Z,14.87
2022-10-05T09:42:14.402Z,15.41
2022-10-05T09:45:00.086Z,15.74
2022-10-05T09:47:41.961Z,15.23
2022-10-05T09:50:27.109Z,15.13
2022-10-05T09:53:04.706Z,15.48
2022-10-05T09:55:39.313Z,15.15
2022-10-05T09:58:12.674Z,15.92
2022-10-05T10:00:47.055Z,15.53
2022-10-05T10:03:39.666Z,15.72
2022-10-05T10:06:10.452Z,15.83
2022-10-05T10:08:55.076Z,16.06
2022-10-05T10:11:40.295Z,16.66
2022-10-05T10:14:45.206Z,17.58
2022-10-05T10:17:28.809Z,17.10
2022-10-05T10:20:22.683Z,16.22
2022-10-05T10:23:04.531Z,16.20
2022-10-05T10:25:40.511Z,17.07
2022-10-05T10:28:07.264Z,16.96
2022-10-05T10:30:52.889Z,16.47
2022-10-05T10:33:39.728Z,16.56
2022-10-05T10:36:21.785Z,17.19
2022-10-05T10:39:00.129Z,17.74
2022-10-05T10:41:45.273Z,17.87
2022-10-05T10:44:30.619Z,18.15
2022-10-05T10:47:09.913Z,17.81
2022-10-05T10:49:45.703Z,17.91
2022-10-05T10:52:24.774Z,17.95
2022-10-05T10:55:06.491Z,18.34
2022-10-05T10:57:33.170Z,18.02
2022-10-05T11:00:18.012Z,18.60
2022-10-05T11:02:44.630Z,19.60
2022-10-05T11:05:29.919Z,19.21
2022-10-05T11:08:25.100Z,19.47
2022-10-05T11:11:04.156Z,20.03
2022-10-05T11:13:41.149Z,20.09
2022-10-05T11:16:19.923Z,19.67
2022-10-05T11:18:46.958Z,19.18
2022-10-05T11:21:31.749Z,19.07
2022-10-05T11:24:17.424Z,19.05
2022-10-05T11:27:11.084Z,18.53
2022-10-05T11:29:59.250Z,17.96
2022-10-05T11:32:44.776Z,17.51
2022-10-05T11:35:24.682Z,17.26
2022-10-05T11:38:11.489Z,17.08
2022-10-05T11:41:16.675Z,17.86
2022-10-05T11:44:06.941Z,18.54
2022-10-05T11:46:52.209Z,18.59
2022-10-05T11:49:33.566Z,19.92
2022-10-05T11:52:00.139Z,21.47
2022-10-05T11:55:09.316Z,21.20
2022-10-05T11:57:41.321Z,21.80
2022-10-05T12:00:17.167Z,22.80
2022-10-05T12:02:56.291Z,23.76
2022-10-05T12:05:27.919Z,24.11
2022-10-05T12:08:03.559Z,22.36
2022-10-05T12:10:31.319Z,22.36
2022-10-05T12:13:19.099Z,23.14
2022-10-05T12:15:54.390Z,24.08
2022-10-05T12:18:41.313Z,24.73
2022-10-05T12:21:15.046Z,25.71
2022-10-05T12:23:41.668Z,26.44
2022-10-05T12:26:16.435Z,26.59
2022-10-05T12:29:04.467Z,26.18
2022-10-05T12:31:43.364Z,25.60
2022-10-05T12:34:24.766Z,23.52
2022-10-05T12:37:06.228Z,22.69
2022-10-05T12:39:51.638Z,21.82
2022-10-05T12:42:31.729Z,21.09
2022-10-05T12:45:17.312Z,20.35
2022-10-05T12:48:13.882Z,19.46
2022-10-05T12:50:40.469Z,19.31
2022-10-05T12:53:25.624Z,19.04
2022-10-05T12:56:01.776Z,18.99
2022-10-05T12:58:38.548Z,18.94
2022-10-05T13:01:23.363Z,19.19
2022-10-05T13:03:55.121Z,19.01
2022-10-05T13:06:42.067Z,18.82
2022-10-05T13:09:13.084Z,18.65
2022-10-05T13:11:45.831Z,20.04
2022-10-05T13:14:16.497Z,21.15
2022-10-05T13:17:12.597Z,22.20
2022-10-05T13:19:39.511Z,24.19
2022-10-05T13:22:27.408Z,24.64
2022-10-05T13:24:59.345Z,26.08
2022-10-05T13:27:35.713Z,26.35
2022-10-05T13:30:05.092Z,26.10
2022-10-05T13:32:31.639Z,26.83
2022-10-05T13:35:17.087Z,26.73
2022-10-05T13:37:56.009Z,26.59
2022-10-05T13:40:25.767Z,27.01
2022-10-05T13:42:55.387Z,25.45
2022-10-05T13:45:26.356Z,22.78
2022-10-05T13:48:11.731Z,21.86
2022-10-05T13:50:45.056Z,21.47
2022-10-05T13:53:34.269Z,20.93
2022-10-05T13:56:06.757Z,20.37
2022-10-05T13:58:36.369Z,19.32
2022-10-05T14:01:07.411Z,19.17
2022-10-05T14:03:38.091Z,19.04
2022-10-05T14:06:27.642Z,18.79
2022-10-05T14:08:54.546Z,19.78
2022-10-05T14:11:26.580Z,22.22
2022-10-05T14:14:01.136Z,23.87
2022-10-05T14:16:27.879Z,24.05
2022-10-05T14:18:57.648Z,23.18
2022-10-05T14:21:30.227Z,22.82
2022-10-05T14:24:32.143Z,22.95
2022-10-05T14:27:22.344Z,23.52
2022-10-05T14:29:54.559Z,24.04
2022-10-05T14:32:25.161Z,23.98
2022-10-05T14:35:01.292Z,23.21
2022-10-05T14:37:50.884Z,23.24
2022-10-05T14:40:29.668Z,24.70
2022-10-05T14:42:57.386Z,24.85
2022-10-05T14:45:25.822Z,24.82
2022-10-05T14:47:56.384Z,24.08
2022-10-05T14:50:29.780Z,24.19
2022-10-05T14:53:10.471Z,24.54
2022-10-05T14:55:49.487Z,23.87
2022-10-05T14:58:35.224Z,24.47
2022-10-05T15:01:16.471Z,25.36
2022-10-05T15:03:55.382Z,25.82
2022-10-05T15:06:33.262Z,24.36
2022-10-05T15:09:16.989Z,24.32
2022-10-05T15:11:53.023Z,23.81
2022-10-05T15:14:25.353Z,23.27
2022-10-05T15:16:53.896Z,23.67
2022-10-05T15:19:32.507Z,23.30
2022-10-05T15:22:18.753Z,23.44
2022-10-05T15:25:03.933Z,23.15
2022-10-05T15:27:30.650Z,22.60
2022-10-05T15:29:57.712Z,22.79
2022-10-05T15:32:28.969Z,23.50
2022-10-05T15:35:14.378Z,22.85
2022-10-05T15:37:43.180Z,22.17
2022-10-05T15:40:21.783Z,20.18
2022-10-05T15:42:53.242Z,19.26
2022-10-05T15:45:43.525Z,18.62
2022-10-05T15:48:22.905Z,17.46
2022-10-05T15:51:00.399Z,16.78
2022-10-05T15:53:45.843Z,16.10
2022-10-05T15:56:28.919Z,15.58
2022-10-05T15:59:27.957Z,15.15
2022-10-05T16:02:00.698Z,15.00
2022-10-05T16:04:39.708Z,14.56
2022-10-05T16:07:30.910Z,14.46
2022-10-05T16:10:13.722Z,14.18
2022-10-05T16:12:40.596Z,14.02
2022-10-05T16:15:33.403Z,13.96
2022-10-05T16:18:05.989Z,13.83
2022-10-05T16:20:38.597Z,13.78
2022-10-05T16:23:14.219Z,13.61
2022-10-05T16:25:58.763Z,13.47
2022-10-05T16:28:34.541Z,13.37
2022-10-05T16:31:26.058Z,13.25
2022-10-05T16:33:54.619Z,13.11
2022-10-05T16:36:33.055Z,12.87
2022-10-05T16:39:07.068Z,12.68
2022-10-05T16:41:34.961Z,12.67
2022-10-05T16:44:31.116Z,12.58
2022-10-05T16:46:57.898Z,12.54
2022-10-05T16:49:24.656Z,12.46
2022-10-05T16:51:57.401Z,12.42
2022-10-05T16:54:26.774Z,12.30
2022-10-05T16:57:04.489Z,12.10
2022-10-05T16:59:49.583Z,12.02
2022-10-05T17:02:22.805Z,12.12
2022-10-05T17:04:49.382Z,12.17
2022-10-05T17:07:21.901Z,12.17
2022-10-05T17:10:17.408Z,12.07
2022-10-05T17:12:45.517Z,11.96
2022-10-05T17:15:12.306Z,11.89
2022-10-05T17:17:57.838Z,11.86
2022-10-05T17:20:30.628Z,11.83
2022-10-05T17:23:16.047Z,11.58
2022-10-05T17:25:48.859Z,11.35
2022-10-05T17:28:18.603Z,11.08
2022-10-05T17:31:03.985Z,11.12
2022-10-05T17:33:31.292Z,11.03
2022-10-05T17:36:05.613Z,10.98
2022-10-05T17:38:34.152Z,11.08
2022-10-05T17:41:00.701Z,10.99
2022-10-05T17:43:30.915Z,10.80
2022-10-05T17:46:00.577Z,10.67
2022-10-05T17:48:38.345Z,10.50
2022-10-05T17:51:47.213Z,10.52
2022-10-05T17:54:40.014Z,10.38
2022-10-05T17:57:06.607Z,10.15
2022-10-05T17:59:39.283Z,10.14
2022-10-05T18:02:35.255Z,10.08
2022-10-05T18:05:03.095Z,10.13
2022-10-05T18:07:30.434Z,9.96
2022-10-05T18:09:57.139Z,9.70
2022-10-05T18:12:39.308Z,9.51
2022-10-05T18:15:08.754Z,9.46
2022-10-05T18:17:41.134Z,9.36
2022-10-05T18:20:14.388Z,9.43
2022-10-05T18:22:44.007Z,9.27
2022-10-05T18:25:20.568Z,9.22
2022-10-05T18:28:03.986Z,9.05
2022-10-05T18:30:35.896Z,8.78
2022-10-05T18:33:21.515Z,8.81
2022-10-05T18:35:48.096Z,8.87
2022-10-05T18:38:14.655Z,8.99
2022-10-05T18:41:03.557Z,9.01
2022-10-05T18:43:42.600Z,8.67
2022-10-05T18:46:09.257Z,8.53
2022-10-05T18:48:56.167Z,8.28
2022-10-05T18:51:35.027Z,8.03
2022-10-05T18:54:20.306Z,8.20
2022-10-05T18:56:50.712Z,8.02
2022-10-05T18:59:18.453Z,7.88
2022-10-05T19:01:45.130Z,8.13
2022-10-05T19:04:30.445Z,7.94
2022-10-05T19:06:59.855Z,7.94
2022-10-05T19:09:27.722Z,7.76
2022-10-05T19:11:57.388Z,7.77
2022-10-05T19:14:44.340Z,7.63
2022-10-05T19:17:12.353Z,7.64
2022-10-05T19:19:57.525Z,7.56
2022-10-05T19:22:27.133Z,7.51
2022-10-05T19:24:53.653Z,7.47
2022-10-05T19:27:27.119Z,7.45
2022-10-05T19:30:15.185Z,7.28
2022-10-05T19:32:41.742Z,7.21
2022-10-05T19:35:17.839Z,7.22
2022-10-05T19:37:47.588Z,7.28
2022-10-05T19:40:29.389Z,7.17
2022-10-05T19:43:04.997Z,7.02
2022-10-05T19:45:53.661Z,7.18
2022-10-05T19:48:27.131Z,7.16
2022-10-05T19:50:58.205Z,7.16
2022-10-05T19:53:32.632Z,6.94
2022-10-05T19:56:15.872Z,6.91
2022-10-05T19:58:42.500Z,6.92
2022-10-05T20:01:11.330Z,6.83
2022-10-05T20:03:38.138Z,6.72
2022-10-05T20:06:06.128Z,6.75
2022-10-05T20:08:40.277Z,6.89
2022-10-05T20:11:08.252Z,6.88
2022-10-05T20:13:35.902Z,6.67
2022-10-05T20:16:26.050Z,6.66
2022-10-05T20:19:11.363Z,6.53
2022-10-05T20:21:44.243Z,6.56
2022-10-05T20:24:11.989Z,6.45
2022-10-05T20:27:05.096Z,6.35
2022-10-05T20:29:36.170Z,6.26
2022-10-05T20:32:08.847Z,6.35
2022-10-05T20:34:36.164Z,6.57
2022-10-05T20:37:03.040Z,6.66
2022-10-05T20:39:31.268Z,6.72
2022-10-05T20:41:58.639Z,6.70
2022-10-05T20:44:25.806Z,6.68
2022-10-05T20:46:55.172Z,6.74
2022-10-05T20:49:25.774Z,6.67
2022-10-05T20:51:55.755Z,6.65
2022-10-05T20:54:22.907Z,6.68
2022-10-05T20:56:49.887Z,6.64
2022-10-05T20:59:16.816Z,6.60
2022-10-05T21:01:50.057Z,6.45
2022-10-05T21:04:17.450Z,6.23
2022-10-05T21:06:44.535Z,6.39
2022-10-05T21:09:11.647Z,6.36
2022-10-05T21:11:40.927Z,6.38
2022-10-05T21:14:08.121Z,6.36
2022-10-05T21:16:37.790Z,6.25
2022-10-05T21:19:06.777Z,6.20
2022-10-05T21:21:33.429Z,6.16
2022-10-05T21:24:01.166Z,6.16
2022-10-05T21:26:29.065Z,6.20
2022-10-05T21:28:56.652Z,6.17
2022-10-05T21:31:23.596Z,5.98
2022-10-05T21:33:50.376Z,5.91
2022-10-05T21:36:21.004Z,5.85
2022-10-05T21:38:50.194Z,5.89
2022-10-05T21:41:17.193Z,5.80
2022-10-05T21:43:44.393Z,5.75
2022-10-05T21:46:11.840Z,5.68
2022-10-05T21:48:39.510Z,5.54
2022-10-05T21:51:07.827Z,5.45
2022-10-05T21:53:36.849Z,5.44
2022-10-05T21:56:05.463Z,5.31
2022-10-05T21:58:32.628Z,5.30
2022-10-05T22:00:59.237Z,5.30
2022-10-05T22:03:25.868Z,5.32
2022-10-05T22:05:52.509Z,5.25
2022-10-05T22:08:22.246Z,5.20
2022-10-05T22:10:50.052Z,5.22
2022-10-05T22:13:17.687Z,5.19
2022-10-05T22:15:44.420Z,5.23
2022-10-05T22:18:15.429Z,5.29
2022-10-05T22:20:42.075Z,5.13
2022-10-05T22:23:09.811Z,5.07
2022-10-05T22:25:36.503Z,4.93
2022-10-05T22:28:04.034Z,5.00
2022-10-05T22:30:30.689Z,5.00
2022-10-05T22:32:57.656Z,4.86
2022-10-05T22:35:24.456Z,4.82
2022-10-05T22:37:51.047Z,4.82
2022-10-05T22:40:17.673Z,4.77
2022-10-05T22:42:44.411Z,4.68
2022-10-05T22:45:11.057Z,4.64
2022-10-05T22:47:37.662Z,4.58
2022-10-05T22:50:04.504Z,4.61
2022-10-05T22:52:31.071Z,4.74
2022-10-05T22:54:57.660Z,4.85
2022-10-05T22:57:24.323Z,4.91
2022-10-05T22:59:50.898Z,4.69
2022-10-05T23:02:18.753Z,4.72
2022-10-05T23:04:45.854Z,4.73
2022-10-05T23:07:12.589Z,4.50
2022-10-05T23:09:39.212Z,4.48
2022-10-05T23:12:05.961Z,4.43
2022-10-05T23:14:33.291Z,4.47
2022-10-05T23:16:59.999Z,4.39
2022-10-05T23:19:26.603Z,4.58
2022-10-05T23:21:53.338Z,4.47
2022-10-05T23:24:19.883Z,4.38
2022-10-05T23:26:46.461Z,4.39
2022-10-05T23:29:13.572Z,4.28
2022-10-05T23:31:40.240Z,4.34
2022-10-05T23:34:06.854Z,4.38
2022-10-05T23:36:33.522Z,4.27
2022-10-05T23:39:00.271Z,4.14
2022-10-05T23:41:27.142Z,4.10
2022-10-05T23:43:55.273Z,4.08
2022-10-05T23:46:22.060Z,4.16
2022-10-05T23:48:50.366Z,4.48
2022-10-05T23:51:17.203Z,4.36
2022-10-05T23:53:44.038Z,4.22
2022-10-05T23:56:10.652Z,4.14
2022-10-05T23:58:37.341Z,4.22
